Time;durP1;ratioP1;P1;durP2;ratioP2;P2;SDS_P1;SDS_P2;PMS_P1;PMS_P2;Temp;Humidity;BMP_temperature;BMP_pressure;BME280_temperature;BME280_humidity;BME280_pressure;Samples;Min_cycle;Max_cycle;Signal;HPM_P1;HPM_P2
2022/09/03 00:03:24;;;;;;;1.27;1.23;;;18.10;30.10;;;;;;10572992;28;20230;-76
2022/09/03 00:08:35;;;;;;;1.50;1.40;;;18.10;30.10;;;;;;10550047;28;20238;-77
2022/09/03 00:13:47;;;;;;;1.40;1.30;;;18.00;30.10;;;;;;10556514;28;20744;-76
2022/09/03 00:18:56;;;;;;;1.93;1.80;;;18.00;31.00;;;;;;10543399;28;20231;-75
2022/09/03 00:24:03;;;;;;;1.30;1.30;;;17.90;30.30;;;;;;10542031;28;20231;-77
2022/09/03 00:29:11;;;;;;;1.50;1.40;;;17.90;30.30;;;;;;10540420;28;20231;-76
2022/09/03 00:34:20;;;;;;;3.10;1.40;;;17.90;30.60;;;;;;10549622;28;20242;-77
2022/09/03 00:39:27;;;;;;;1.50;1.40;;;17.90;30.90;;;;;;10566363;28;20597;-77
2022/09/03 00:44:54;;;;;;;2.10;1.50;;;17.80;31.20;;;;;;10570803;28;20237;-76
2022/09/03 00:50:08;;;;;;;1.40;1.30;;;17.80;31.60;;;;;;10557450;28;20227;-77
2022/09/03 00:55:26;;;;;;;1.50;1.40;;;17.80;31.90;;;;;;10546598;28;20631;-77
2022/09/03 01:00:29;;;;;;;1.57;1.47;;;17.80;32.00;;;;;;10531684;28;20930;-76
2022/09/03 01:05:47;;;;;;;1.40;1.30;;;17.80;31.00;;;;;;10543553;28;20230;-76
2022/09/03 01:10:59;;;;;;;1.60;1.50;;;17.80;32.30;;;;;;10564413;28;20229;-77
2022/09/03 01:16:13;;;;;;;1.60;1.50;;;17.80;32.20;;;;;;10531807;28;20223;-76
2022/09/03 01:21:37;;;;;;;1.60;1.50;;;17.80;32.40;;;;;;10569954;28;20269;-77
2022/09/03 01:27:04;;;;;;;1.60;1.50;;;17.80;32.20;;;;;;10547949;28;20223;-75
2022/09/03 01:32:19;;;;;;;1.67;1.20;;;17.80;32.20;;;;;;10548395;28;20820;-77
2022/09/03 01:37:33;;;;;;;2.53;1.53;;;17.80;32.50;;;;;;10560311;28;20216;-77
2022/09/03 01:42:47;;;;;;;1.50;1.40;;;17.80;32.50;;;;;;10552235;28;20261;-77
2022/09/03 01:48:05;;;;;;;2.20;1.60;;;17.80;32.80;;;;;;10555501;28;20226;-77
2022/09/03 01:53:18;;;;;;;1.70;1.60;;;17.80;33.00;;;;;;10544287;28;20701;-77
2022/09/03 01:59:09;;;;;;;1.43;1.33;;;17.80;32.90;;;;;;10571214;28;20809;-75
2022/09/03 02:04:22;;;;;;;1.50;1.40;;;17.70;33.10;;;;;;10528959;28;20235;-77
2022/09/03 02:09:25;;;;;;;1.70;1.40;;;17.70;33.50;;;;;;10549179;28;20234;-76
2022/09/03 02:14:35;;;;;;;1.63;1.50;;;17.70;32.30;;;;;;10546647;28;20239;-77
2022/09/03 02:19:40;;;;;;;1.70;1.60;;;17.70;32.80;;;;;;10568666;28;20603;-77
2022/09/03 02:24:43;;;;;;;1.60;1.50;;;17.70;33.00;;;;;;10559217;28;20761;-76
2022/09/03 02:29:47;;;;;;;1.73;1.63;;;17.60;32.40;;;;;;10558450;28;20277;-77
2022/09/03 02:34:51;;;;;;;2.63;1.53;;;17.60;32.50;;;;;;10554310;28;20604;-76
2022/09/03 02:39:55;;;;;;;1.50;1.40;;;17.60;33.10;;;;;;10554071;28;20233;-77
2022/09/03 02:45:07;;;;;;;1.50;1.40;;;17.60;32.70;;;;;;10579098;28;20226;-77
2022/09/03 02:50:12;;;;;;;1.40;1.30;;;17.50;33.70;;;;;;10578908;28;20227;-76
2022/09/03 02:55:15;;;;;;;2.53;1.67;;;17.50;33.20;;;;;;10553732;28;20234;-77
2022/09/03 03:00:18;;;;;;;2.53;1.47;;;17.50;33.00;;;;;;10552946;28;20254;-77
2022/09/03 03:05:30;;;;;;;1.60;1.50;;;17.50;32.90;;;;;;10544105;28;20236;-77
2022/09/03 03:10:33;;;;;;;1.10;1.10;;;17.50;34.30;;;;;;10563410;28;20230;-76
2022/09/03 03:15:36;;;;;;;1.70;1.37;;;17.50;32.90;;;;;;10541426;28;20612;-76
2022/09/03 03:20:42;;;;;;;1.50;1.40;;;17.50;33.20;;;;;;10552398;28;20227;-76
2022/09/03 03:25:45;;;;;;;1.83;1.70;;;17.60;34.10;;;;;;10535227;28;20667;-76
2022/09/03 03:30:48;;;;;;;2.13;1.60;;;17.50;33.30;;;;;;10567650;28;20233;-77
2022/09/03 03:35:53;;;;;;;1.67;1.57;;;17.60;33.40;;;;;;10576392;28;20237;-76
2022/09/03 03:40:56;;;;;;;1.60;1.50;;;17.60;34.20;;;;;;10563926;28;20220;-77
2022/09/03 03:46:00;;;;;;;2.03;1.63;;;17.60;33.40;;;;;;10551363;28;20742;-77
2022/09/03 03:51:06;;;;;;;1.47;1.37;;;17.60;33.50;;;;;;10542461;28;20240;-77
2022/09/03 03:56:12;;;;;;;1.80;1.70;;;17.50;34.30;;;;;;10542398;28;20231;-76
2022/09/03 04:01:17;;;;;;;1.17;1.17;;;17.50;34.00;;;;;;10549309;28;20230;-77
2022/09/03 04:06:22;;;;;;;1.50;1.40;;;17.40;33.70;;;;;;10558938;28;20310;-77
2022/09/03 04:11:26;;;;;;;1.40;1.30;;;17.40;34.20;;;;;;10548925;28;20232;-75
2022/09/03 04:16:29;;;;;;;1.90;1.80;;;17.30;33.80;;;;;;10553470;28;20707;-77
2022/09/03 04:21:35;;;;;;;1.77;1.67;;;17.30;33.70;;;;;;10574905;28;20284;-77
2022/09/03 04:26:39;;;;;;;2.80;1.90;;;17.30;34.10;;;;;;10566693;28;20225;-77
2022/09/03 04:32:51;;;;;;;2.40;2.17;;;17.30;34.00;;;;;;10574811;28;20604;-77
2022/09/03 04:37:07;;;;;;;2.33;2.00;;;17.20;34.00;;;;;;10541932;28;20231;-76
2022/09/03 04:42:11;;;;;;;2.47;1.80;;;17.20;34.00;;;;;;10547620;28;20228;-77
2022/09/03 04:47:15;;;;;;;1.97;1.87;;;17.20;34.00;;;;;;10540235;28;20228;-76
2022/09/03 04:52:19;;;;;;;1.70;1.60;;;17.10;34.00;;;;;;10539840;28;20234;-76
2022/09/03 04:57:22;;;;;;;2.30;2.00;;;17.10;34.00;;;;;;10556355;28;20708;-75
2022/09/03 05:02:25;;;;;;;1.77;1.67;;;17.10;34.00;;;;;;10555163;28;20703;-77
2022/09/03 05:07:37;;;;;;;2.47;1.80;;;17.10;34.00;;;;;;10547763;28;20224;-77
2022/09/03 05:12:40;;;;;;;2.03;1.93;;;17.10;34.30;;;;;;10547705;28;20238;-77
2022/09/03 05:17:43;;;;;;;2.40;2.00;;;17.10;34.00;;;;;;10547687;28;20218;-76
2022/09/03 05:23:04;;;;;;;3.20;2.23;;;17.10;34.00;;;;;;10524952;28;20231;-76
2022/09/03 05:28:07;;;;;;;2.87;2.40;;;17.10;35.60;;;;;;10538986;28;20218;-76
2022/09/03 05:33:10;;;;;;;1.83;1.73;;;17.10;34.30;;;;;;10568671;28;20231;-76
2022/09/03 05:38:16;;;;;;;1.83;1.73;;;17.10;34.50;;;;;;10546431;28;20717;-77
2022/09/03 05:43:20;;;;;;;3.70;2.10;;;17.10;35.10;;;;;;10550044;28;20922;-75
2022/09/03 05:48:23;;;;;;;3.10;1.90;;;17.10;34.80;;;;;;10532842;28;20610;-76
2022/09/03 05:53:28;;;;;;;2.97;2.00;;;17.20;35.00;;;;;;10571387;28;20219;-76
2022/09/03 05:58:32;;;;;;;2.57;1.83;;;17.20;35.40;;;;;;10559800;28;20223;-76
2022/09/03 06:03:35;;;;;;;1.90;1.80;;;17.30;35.30;;;;;;10529860;28;20231;-77
2022/09/03 06:08:43;;;;;;;2.20;2.00;;;17.40;35.10;;;;;;10529163;28;20238;-77
2022/09/03 06:13:47;;;;;;;2.13;1.93;;;17.50;35.60;;;;;;10545002;28;20739;-76
2022/09/03 06:18:51;;;;;;;2.17;2.07;;;17.50;35.30;;;;;;10552504;28;20226;-76
2022/09/03 06:23:57;;;;;;;2.33;2.10;;;17.60;35.70;;;;;;10544341;28;20231;-76
2022/09/03 06:29:02;;;;;;;2.40;2.20;;;17.70;36.50;;;;;;10561937;28;20695;-76
2022/09/03 06:34:05;;;;;;;2.80;2.30;;;17.70;35.70;;;;;;10537429;28;20254;-76
2022/09/03 06:39:09;;;;;;;2.00;1.90;;;17.70;35.40;;;;;;10563159;28;20226;-75
2022/09/03 06:44:14;;;;;;;2.13;1.97;;;17.80;35.90;;;;;;10562548;28;20227;-75
2022/09/03 06:49:18;;;;;;;2.10;1.90;;;17.80;35.40;;;;;;10562926;28;20238;-77
2022/09/03 06:54:24;;;;;;;3.17;2.00;;;17.80;35.20;;;;;;10546035;28;21485;-77
2022/09/03 06:59:27;;;;;;;2.00;1.90;;;17.90;35.50;;;;;;10554388;28;20376;-76
2022/09/03 07:04:33;;;;;;;3.07;2.00;;;18.00;35.30;;;;;;10542112;28;20230;-77
2022/09/03 07:09:39;;;;;;;1.67;1.57;;;18.10;35.20;;;;;;10549124;28;20238;-76
2022/09/03 07:14:46;;;;;;;2.03;1.93;;;18.20;35.90;;;;;;10561101;28;20239;-76
2022/09/03 07:19:53;;;;;;;1.97;1.87;;;18.30;35.30;;;;;;10569497;28;20317;-76
2022/09/03 07:24:57;;;;;;;2.07;1.80;;;18.30;35.30;;;;;;10570666;28;20329;-75
2022/09/03 07:30:01;;;;;;;1.70;1.60;;;18.50;35.20;;;;;;10560351;28;20802;-75
2022/09/03 07:35:05;;;;;;;2.57;1.70;;;18.50;35.20;;;;;;10563432;28;20682;-77
2022/09/03 07:40:10;;;;;;;2.77;1.60;;;18.60;35.30;;;;;;10551664;28;20230;-77
2022/09/03 07:45:14;;;;;;;2.23;1.60;;;18.70;35.40;;;;;;10553587;28;20237;-76
2022/09/03 07:50:19;;;;;;;1.90;1.80;;;18.80;35.50;;;;;;10543043;28;20251;-76
2022/09/03 07:55:24;;;;;;;2.33;1.80;;;18.80;35.50;;;;;;10560373;28;20235;-76
2022/09/03 08:00:27;;;;;;;2.03;1.77;;;18.90;35.50;;;;;;10579563;28;20223;-77
2022/09/03 08:05:32;;;;;;;1.90;1.80;;;19.00;35.60;;;;;;10576446;28;20223;-77
2022/09/03 08:10:37;;;;;;;2.00;1.80;;;19.00;35.60;;;;;;10550871;28;20227;-76
2022/09/03 08:15:41;;;;;;;2.10;1.97;;;19.00;35.60;;;;;;10563700;28;20295;-77
2022/09/03 08:20:45;;;;;;;1.93;1.80;;;19.10;35.70;;;;;;10580199;28;20243;-77
2022/09/03 08:25:57;;;;;;;2.10;1.80;;;19.10;35.70;;;;;;10573895;28;20234;-77
2022/09/03 08:31:06;;;;;;;2.43;1.57;;;19.20;35.80;;;;;;10537806;28;20230;-77
2022/09/03 08:36:12;;;;;;;2.00;1.90;;;19.20;35.80;;;;;;10536636;28;20231;-77
2022/09/03 08:41:20;;;;;;;2.20;2.00;;;19.30;35.90;;;;;;10558771;28;20747;-77
2022/09/03 08:46:32;;;;;;;2.40;2.17;;;19.30;36.60;;;;;;10536513;28;20216;-77
2022/09/03 08:51:39;;;;;;;2.33;2.13;;;19.40;36.60;;;;;;10556415;28;20241;-77
2022/09/03 08:56:44;;;;;;;2.03;1.93;;;19.40;36.00;;;;;;10577711;28;20231;-76
2022/09/03 09:01:55;;;;;;;2.20;2.10;;;19.50;37.00;;;;;;10551693;28;20237;-77
2022/09/03 09:07:05;;;;;;;2.30;2.20;;;19.50;37.60;;;;;;10577111;28;20248;-76
2022/09/03 09:12:21;;;;;;;2.20;2.07;;;19.60;37.70;;;;;;10559380;28;20254;-77
2022/09/03 09:17:36;;;;;;;2.40;2.20;;;19.70;37.80;;;;;;10535154;28;20231;-77
2022/09/03 09:22:43;;;;;;;2.50;2.30;;;19.90;38.00;;;;;;10548284;28;20234;-78
2022/09/03 09:27:54;;;;;;;2.60;2.40;;;20.00;37.50;;;;;;10557379;28;20269;-77
2022/09/03 09:32:59;;;;;;;2.57;2.37;;;20.10;37.60;;;;;;10576854;28;20230;-77
2022/09/03 09:38:02;;;;;;;3.00;2.80;;;20.30;37.20;;;;;;10567955;28;20726;-77
2022/09/03 09:43:15;;;;;;;2.17;2.07;;;20.50;36.90;;;;;;10544341;28;20238;-77
2022/09/03 09:48:25;;;;;;;2.40;2.20;;;20.70;37.10;;;;;;10571603;28;20235;-77
2022/09/03 09:53:29;;;;;;;3.30;2.40;;;20.80;37.20;;;;;;10573770;28;20739;-77
2022/09/03 09:58:34;;;;;;;2.53;2.40;;;21.00;37.40;;;;;;10543160;28;20596;-77
2022/09/03 10:03:42;;;;;;;2.70;2.50;;;21.10;37.50;;;;;;10548847;28;20245;-77
2022/09/03 10:08:45;;;;;;;2.70;2.50;;;21.30;37.60;;;;;;10577440;28;20264;-76
2022/09/03 10:13:51;;;;;;;2.80;2.50;;;21.50;37.50;;;;;;10551082;28;20238;-77
2022/09/03 10:19:02;;;;;;;2.70;2.50;;;21.60;37.30;;;;;;10535883;28;20223;-77
2022/09/03 10:24:38;;;;;;;2.90;2.33;;;21.80;38.10;;;;;;10560148;28;20250;-77
2022/09/03 10:29:42;;;;;;;2.90;2.40;;;21.90;37.20;;;;;;10548531;28;20290;-77
2022/09/03 10:34:56;;;;;;;2.27;2.13;;;22.10;37.40;;;;;;10545746;28;20236;-77
2022/09/03 10:40:14;;;;;;;2.10;2.00;;;22.20;37.10;;;;;;10552946;28;20631;-78
2022/09/03 10:45:35;;;;;;;3.30;2.60;;;22.40;37.00;;;;;;10543450;28;20236;-77
2022/09/03 10:50:48;;;;;;;2.63;2.43;;;22.50;36.90;;;;;;10543507;28;20231;-77
2022/09/03 10:55:59;;;;;;;2.70;2.50;;;22.70;36.90;;;;;;10543263;28;20231;-77
2022/09/03 11:01:07;;;;;;;3.10;2.90;;;22.80;37.20;;;;;;10540019;28;20317;-76
2022/09/03 11:06:18;;;;;;;3.00;2.70;;;22.90;36.50;;;;;;10564363;28;20219;-76
2022/09/03 11:11:32;;;;;;;3.10;2.90;;;23.00;36.60;;;;;;10560085;28;20223;-78
2022/09/03 11:16:45;;;;;;;4.30;2.53;;;23.20;36.80;;;;;;10549960;28;20223;-77
2022/09/03 11:21:50;;;;;;;2.70;2.50;;;23.30;36.40;;;;;;10567503;28;20728;-77
2022/09/03 11:27:01;;;;;;;2.77;2.57;;;23.40;36.60;;;;;;10558626;28;20218;-78
2022/09/03 11:32:10;;;;;;;3.10;2.80;;;23.50;36.70;;;;;;10572219;28;20239;-78
2022/09/03 11:37:19;;;;;;;2.30;2.00;;;23.50;36.90;;;;;;10557346;28;20238;-79
2022/09/03 11:42:29;;;;;;;2.93;2.13;;;23.70;36.40;;;;;;10558446;28;20612;-77
2022/09/03 11:47:41;;;;;;;2.30;2.10;;;23.80;37.40;;;;;;10562328;28;20782;-78
2022/09/03 11:52:44;;;;;;;2.47;2.10;;;23.90;36.30;;;;;;10555271;28;20237;-78
2022/09/03 11:57:47;;;;;;;1.90;1.80;;;24.00;36.00;;;;;;10558212;28;20216;-78
2022/09/03 12:02:57;;;;;;;2.13;1.97;;;24.10;35.70;;;;;;10558563;28;20310;-78
2022/09/03 12:08:42;;;;;;;1.93;1.83;;;24.20;35.50;;;;;;10563796;28;20740;-78
2022/09/03 12:13:51;;;;;;;2.17;2.07;;;24.30;35.60;;;;;;10534096;28;20229;-79
2022/09/03 12:19:01;;;;;;;2.00;1.90;;;24.30;35.10;;;;;;10558199;28;20228;-78
2022/09/03 12:24:04;;;;;;;2.67;2.00;;;24.40;35.20;;;;;;10552468;28;21598;-76
2022/09/03 12:29:19;;;;;;;2.20;2.10;;;24.40;35.10;;;;;;10543993;28;20227;-76
2022/09/03 12:34:26;;;;;;;1.93;1.83;;;24.50;35.30;;;;;;10551205;28;20230;-78
2022/09/03 12:39:30;;;;;;;2.10;2.00;;;24.50;35.90;;;;;;10544397;28;20229;-77
2022/09/03 12:44:53;;;;;;;2.37;2.17;;;24.60;35.40;;;;;;10542899;28;20230;-77
2022/09/03 12:50:06;;;;;;;2.50;2.07;;;24.70;35.10;;;;;;10547414;28;20227;-77
2022/09/03 12:55:19;;;;;;;2.07;1.97;;;24.80;34.80;;;;;;10558860;28;20310;-77
2022/09/03 13:00:22;;;;;;;2.13;2.03;;;24.90;34.50;;;;;;10552133;28;20238;-77
2022/09/03 13:05:34;;;;;;;2.07;1.97;;;25.00;34.80;;;;;;10557559;28;20237;-77
2022/09/03 13:10:41;;;;;;;1.90;1.80;;;25.00;34.60;;;;;;10548578;28;21084;-78
2022/09/03 13:15:59;;;;;;;2.30;2.17;;;25.10;34.40;;;;;;10543599;28;20230;-77
2022/09/03 13:21:15;;;;;;;2.10;2.00;;;25.10;34.00;;;;;;10552053;28;20306;-78
2022/09/03 13:26:27;;;;;;;1.90;1.80;;;25.10;33.90;;;;;;10555235;28;20727;-79
2022/09/03 13:31:36;;;;;;;2.03;1.93;;;25.20;34.50;;;;;;10552782;28;20227;-81
2022/09/03 13:36:45;;;;;;;2.10;2.00;;;25.40;33.90;;;;;;10551848;28;20226;-79
2022/09/03 13:41:53;;;;;;;2.10;2.00;;;25.40;33.80;;;;;;10560282;28;20227;-78
2022/09/03 13:47:01;;;;;;;2.20;2.10;;;25.60;33.40;;;;;;10550042;28;20225;-80
2022/09/03 13:52:11;;;;;;;2.10;2.00;;;25.70;33.20;;;;;;10559087;28;20234;-79
2022/09/03 13:57:30;;;;;;;1.67;1.63;;;25.70;32.80;;;;;;10557819;28;20783;-79
2022/09/03 14:02:50;;;;;;;2.07;1.97;;;25.70;32.90;;;;;;10566100;28;20238;-79
2022/09/03 14:08:08;;;;;;;1.90;1.80;;;25.70;32.50;;;;;;10558983;28;20222;-79
2022/09/03 14:13:19;;;;;;;2.17;2.07;;;25.70;32.60;;;;;;10552579;28;20223;-80
2022/09/03 14:18:36;;;;;;;2.00;1.90;;;25.70;32.50;;;;;;10571353;28;20231;-79
2022/09/03 14:23:47;;;;;;;2.87;2.20;;;25.70;32.60;;;;;;10568028;28;20608;-79
2022/09/03 14:28:59;;;;;;;2.27;2.17;;;25.70;32.70;;;;;;10570507;28;20218;-78
2022/09/03 14:34:11;;;;;;;2.63;1.77;;;25.60;33.10;;;;;;10563395;28;20219;-78
2022/09/03 14:39:32;;;;;;;2.00;1.90;;;25.50;33.30;;;;;;10564747;28;20609;-79
2022/09/03 14:44:48;;;;;;;2.30;2.10;;;25.40;33.60;;;;;;10557298;28;20683;-79
2022/09/03 14:50:14;;;;;;;2.40;2.20;;;25.40;34.70;;;;;;10555557;28;20317;-80
2022/09/03 14:55:31;;;;;;;2.00;1.90;;;25.30;34.80;;;;;;10558426;28;21027;-81
2022/09/03 15:00:47;;;;;;;2.10;2.00;;;25.30;35.30;;;;;;10564640;28;20222;-78
2022/09/03 15:06:33;;;;;;;2.50;2.40;;;25.30;35.80;;;;;;10561852;28;20226;-77
2022/09/03 15:11:49;;;;;;;3.33;2.40;;;25.20;35.50;;;;;;10560241;27;20592;-77
2022/09/03 15:16:59;;;;;;;2.60;2.40;;;25.20;35.80;;;;;;10558827;28;20226;-77
2022/09/03 15:22:14;;;;;;;2.80;2.50;;;25.00;35.80;;;;;;10551789;28;20219;-77
2022/09/03 15:27:39;;;;;;;3.20;2.90;;;24.90;36.10;;;;;;10557075;28;20229;-77
2022/09/03 15:33:07;;;;;;;3.33;3.10;;;24.90;36.30;;;;;;10548591;28;20235;-76
2022/09/03 15:38:19;;;;;;;3.20;3.00;;;24.70;36.80;;;;;;10549556;28;20229;-75
2022/09/03 15:43:27;;;;;;;2.50;2.30;;;24.50;37.30;;;;;;10552119;28;20227;-74
2022/09/03 15:48:36;;;;;;;2.17;2.00;;;24.30;37.40;;;;;;10551171;28;20233;-74
2022/09/03 15:53:45;;;;;;;2.20;2.07;;;24.10;37.40;;;;;;10565455;28;20317;-73
2022/09/03 15:58:58;;;;;;;2.43;2.20;;;24.00;37.70;;;;;;10553760;28;20222;-74
2022/09/03 16:04:11;;;;;;;2.10;1.90;;;23.90;38.40;;;;;;10546950;27;20233;-73
2022/09/03 16:09:25;;;;;;;1.93;1.83;;;23.80;38.20;;;;;;10561096;28;20210;-74
2022/09/03 16:14:36;;;;;;;1.70;1.60;;;23.70;37.90;;;;;;10558279;28;20233;-72
2022/09/03 16:19:46;;;;;;;1.67;1.57;;;23.60;38.50;;;;;;10554893;28;20233;-71
2022/09/03 16:24:57;;;;;;;1.80;1.30;;;23.50;38.20;;;;;;10560233;28;20235;-73
2022/09/03 16:30:08;;;;;;;1.43;1.33;;;23.40;38.20;;;;;;10558358;28;20610;-73
2022/09/03 16:35:23;;;;;;;1.20;1.10;;;23.30;37.80;;;;;;10548557;28;20222;-73
2022/09/03 16:40:37;;;;;;;1.20;1.20;;;23.20;37.40;;;;;;10556204;28;20704;-73
2022/09/03 16:45:50;;;;;;;1.20;1.10;;;23.10;37.70;;;;;;10545767;28;20239;-73
2022/09/03 16:51:07;;;;;;;1.00;1.00;;;23.00;37.80;;;;;;10554905;28;20235;-73
2022/09/03 16:56:32;;;;;;;1.30;1.27;;;23.00;37.80;;;;;;10555596;28;20252;-73
2022/09/03 17:01:52;;;;;;;3.37;1.27;;;22.90;37.70;;;;;;10552769;28;20230;-75
2022/09/03 17:07:12;;;;;;;1.20;1.20;;;22.80;37.90;;;;;;10556422;28;20227;-72
2022/09/03 17:12:25;;;;;;;1.63;1.10;;;22.80;37.90;;;;;;10550213;28;20222;-75
2022/09/03 17:17:50;;;;;;;1.20;1.10;;;22.70;38.20;;;;;;10557274;28;20233;-73
2022/09/03 17:23:04;;;;;;;3.13;1.20;;;22.70;38.80;;;;;;10553281;27;20227;-75
2022/09/03 17:28:22;;;;;;;1.10;1.10;;;22.60;39.10;;;;;;10550354;28;20222;-74
2022/09/03 17:33:55;;;;;;;1.40;1.30;;;22.60;38.90;;;;;;10555912;28;20230;-72
2022/09/03 17:39:21;;;;;;;1.27;1.17;;;22.60;39.50;;;;;;10555828;28;20600;-76
2022/09/03 17:44:38;;;;;;;1.30;1.20;;;22.50;38.70;;;;;;10556010;28;20232;-75
2022/09/03 17:49:49;;;;;;;1.20;1.10;;;22.50;38.70;;;;;;10551761;28;20227;-75
2022/09/03 17:54:55;;;;;;;1.80;1.70;;;22.50;39.00;;;;;;10550130;28;20227;-74
2022/09/03 18:00:04;;;;;;;1.37;1.27;;;22.40;38.60;;;;;;10542072;28;20731;-74
2022/09/03 18:05:18;;;;;;;1.20;1.20;;;22.40;39.00;;;;;;10555298;28;20749;-72
2022/09/03 18:10:29;;;;;;;1.10;1.07;;;22.30;39.10;;;;;;10552375;28;20231;-74
2022/09/03 18:15:37;;;;;;;1.60;1.50;;;22.30;39.40;;;;;;10549177;28;20231;-75
2022/09/03 20:10:59;;;;;;;2.10;2.00;;;21.40;38.10;;;;;;10525129;28;20228;-73
2022/09/03 20:16:12;;;;;;;3.13;2.10;;;21.30;38.00;;;;;;10525779;28;20242;-75
2022/09/03 20:21:23;;;;;;;2.47;2.27;;;21.20;38.60;;;;;;10525693;28;20219;-73
2022/09/03 20:26:40;;;;;;;3.13;2.60;;;21.20;38.80;;;;;;10525314;28;20242;-76
2022/09/03 20:31:52;;;;;;;2.23;2.03;;;21.00;38.70;;;;;;10525318;28;20229;-76
2022/09/03 20:37:05;;;;;;;3.13;2.00;;;20.90;38.90;;;;;;10523599;28;20776;-76
2022/09/03 20:42:27;;;;;;;2.40;1.93;;;20.80;39.00;;;;;;10529907;28;20235;-75
2022/09/03 20:47:59;;;;;;;2.00;1.80;;;20.80;39.20;;;;;;10531587;28;20335;-75
2022/09/03 20:53:13;;;;;;;1.70;1.60;;;20.70;38.90;;;;;;10531648;28;20761;-76
2022/09/03 20:58:25;;;;;;;1.50;1.40;;;20.70;39.00;;;;;;10532185;28;20754;-75
2022/09/03 21:03:36;;;;;;;1.80;1.70;;;20.60;38.80;;;;;;10531496;28;20223;-76
2022/09/03 21:08:52;;;;;;;1.73;1.63;;;20.60;39.10;;;;;;10531309;28;20227;-75
2022/09/03 21:14:03;;;;;;;2.40;2.30;;;20.60;39.80;;;;;;10531311;28;20251;-75
2022/09/03 21:19:11;;;;;;;2.80;2.43;;;20.50;38.90;;;;;;10531338;28;20235;-76
2022/09/03 21:24:19;;;;;;;3.00;2.80;;;20.50;38.90;;;;;;10530354;28;20289;-76
2022/09/03 21:29:26;;;;;;;2.40;2.20;;;20.30;38.70;;;;;;10530915;28;20284;-76
2022/09/03 21:34:35;;;;;;;2.27;1.97;;;20.20;38.70;;;;;;10530456;28;20246;-76
2022/09/03 21:39:43;;;;;;;3.20;2.47;;;20.10;39.00;;;;;;10530167;28;20245;-75
2022/09/03 21:44:53;;;;;;;2.53;2.43;;;20.10;39.70;;;;;;10530197;28;20219;-75
2022/09/03 21:50:06;;;;;;;2.00;1.90;;;20.00;39.70;;;;;;10529918;28;20230;-76
2022/09/03 21:55:20;;;;;;;2.87;2.20;;;20.00;39.60;;;;;;10529674;28;20227;-76
2022/09/03 22:00:31;;;;;;;2.20;2.10;;;19.90;39.80;;;;;;10529615;28;20722;-75
2022/09/03 22:05:49;;;;;;;2.10;2.00;;;19.90;39.70;;;;;;10529686;28;20255;-75
2022/09/03 22:11:03;;;;;;;2.20;2.00;;;19.80;39.80;;;;;;10529587;28;20272;-76
2022/09/03 22:16:16;;;;;;;2.27;2.07;;;19.70;39.80;;;;;;10529030;28;20231;-75
2022/09/03 22:21:25;;;;;;;2.30;2.20;;;19.70;39.70;;;;;;10529193;28;20259;-75
2022/09/03 22:26:44;;;;;;;2.23;2.07;;;19.60;39.60;;;;;;10529264;28;20704;-75
2022/09/03 22:31:56;;;;;;;3.13;1.97;;;19.50;39.70;;;;;;10529269;28;20639;-75
2022/09/03 22:37:03;;;;;;;2.00;1.90;;;19.50;40.00;;;;;;10533637;28;20235;-74
2022/09/03 22:43:01;;;;;;;1.70;1.60;;;19.50;39.90;;;;;;10537209;28;20243;-75
2022/09/03 22:48:18;;;;;;;3.57;2.10;;;19.40;39.80;;;;;;10434197;28;20284;-75
2022/09/03 22:53:34;;;;;;;2.60;1.97;;;19.40;40.10;;;;;;10536788;28;20242;-75
2022/09/03 22:58:42;;;;;;;2.20;2.10;;;19.40;40.30;;;;;;10536195;28;20245;-75
2022/09/03 23:03:50;;;;;;;2.37;1.90;;;19.40;40.00;;;;;;10536574;28;20228;-75
2022/09/03 23:09:02;;;;;;;1.90;1.80;;;19.30;40.20;;;;;;10536202;28;20273;-75
2022/09/03 23:14:08;;;;;;;2.20;2.10;;;19.30;40.30;;;;;;10535974;28;20319;-75
2022/09/03 23:19:17;;;;;;;2.10;2.00;;;19.20;40.10;;;;;;10534469;28;20318;-75
2022/09/03 23:24:28;;;;;;;2.20;2.00;;;19.30;40.80;;;;;;10533408;28;20224;-74
2022/09/03 23:29:36;;;;;;;2.03;1.93;;;19.20;40.80;;;;;;10535291;28;20227;-75
2022/09/03 23:34:39;;;;;;;1.93;1.73;;;19.20;40.70;;;;;;10535288;28;20234;-74
2022/09/03 23:40:11;;;;;;;2.20;2.00;;;19.20;39.90;;;;;;10534886;28;20226;-77
2022/09/03 23:45:24;;;;;;;2.50;2.00;;;19.10;40.70;;;;;;10534503;28;20582;-75
2022/09/03 23:50:33;;;;;;;2.23;2.07;;;19.10;40.80;;;;;;10533917;28;20785;-74
2022/09/03 23:55:49;;;;;;;1.90;1.80;;;19.10;40.60;;;;;;10533947;28;20241;-75
